Terminal Aerodrome Forecast
Issued by NWS Amarillo, TX

Home | Current Version | Previous Version | Text Only | Print | Product List | Glossary On
Versions: 1 2 3 4 5 6 7 8 9 10 11 12
000
FTUS44 KAMA 011100
TAFAMA
TAF
KAMA 011129Z 0112/0212 23015G24KT P6SM SCT300
     FM012000 20011KT P6SM SCT080 SCT300
     FM020200 18011KT P6SM SCT100 BKN300
     FM020900 23009KT P6SM SCT100 BKN300=

USA.gov is the U.S. government's official web portal to all federal, state and local government web resources and services.